Terminal Aerodrome Forecast
Issued by NWS

Current Version | Previous Version | Text Only | Print | Product List | Glossary On
Versions: 1 2 3 4 5 6 7 8 9 10 11 12
000
FTUS44 KEPZ 041736
TAFTCS
TAF
KTCS 041736Z 0418/0518 15008KT P6SM SKC
     FM050300 17008KT P6SM SCT100 SCT250
     FM050600 29007KT P6SM SCT100 SCT250
     FM051600 16010KT P6SM SCT080 BKN250=

USA.gov is the U.S. government's official web portal to all federal, state and local government web resources and services.